sensor_id;sensor_type;location;lat;lon;timestamp;temperature;humidity
76537;DHT22;65381;51.254;15.592;2023-08-20T00:01:41;21.70;58.10
76537;DHT22;65381;51.254;15.592;2023-08-20T00:04:10;21.70;58.20
76537;DHT22;65381;51.254;15.592;2023-08-20T00:06:42;21.80;58.20
76537;DHT22;65381;51.254;15.592;2023-08-20T00:09:12;21.90;58.10
76537;DHT22;65381;51.254;15.592;2023-08-20T00:11:47;21.90;58.10
76537;DHT22;65381;51.254;15.592;2023-08-20T00:14:17;21.90;58.10
76537;DHT22;65381;51.254;15.592;2023-08-20T00:16:46;22.00;58.10
76537;DHT22;65381;51.254;15.592;2023-08-20T00:19:15;22.00;58.10
76537;DHT22;65381;51.254;15.592;2023-08-20T00:21:43;22.00;58.10
76537;DHT22;65381;51.254;15.592;2023-08-20T00:24:12;22.00;58.10
76537;DHT22;65381;51.254;15.592;2023-08-20T00:26:41;22.00;58.10
76537;DHT22;65381;51.254;15.592;2023-08-20T00:29:12;22.00;58.10
76537;DHT22;65381;51.254;15.592;2023-08-20T00:31:40;22.00;58.20
76537;DHT22;65381;51.254;15.592;2023-08-20T00:34:09;22.00;58.20
76537;DHT22;65381;51.254;15.592;2023-08-20T00:36:36;22.00;58.30
76537;DHT22;65381;51.254;15.592;2023-08-20T00:39:05;21.90;58.30
76537;DHT22;65381;51.254;15.592;2023-08-20T00:41:33;21.90;58.40
76537;DHT22;65381;51.254;15.592;2023-08-20T00:44:02;21.90;58.40
76537;DHT22;65381;51.254;15.592;2023-08-20T00:46:31;21.90;58.50
76537;DHT22;65381;51.254;15.592;2023-08-20T00:48:59;21.90;58.60
76537;DHT22;65381;51.254;15.592;2023-08-20T00:51:28;21.90;58.60
76537;DHT22;65381;51.254;15.592;2023-08-20T00:53:57;21.90;58.70
76537;DHT22;65381;51.254;15.592;2023-08-20T00:56:25;21.90;58.70
76537;DHT22;65381;51.254;15.592;2023-08-20T00:58:55;21.90;58.70
76537;DHT22;65381;51.254;15.592;2023-08-20T01:01:22;21.90;58.60
76537;DHT22;65381;51.254;15.592;2023-08-20T01:03:53;21.90;58.70
76537;DHT22;65381;51.254;15.592;2023-08-20T01:11:59;22.00;58.60
76537;DHT22;65381;51.254;15.592;2023-08-20T01:14:32;22.00;58.30
76537;DHT22;65381;51.254;15.592;2023-08-20T01:17:02;22.00;58.30
76537;DHT22;65381;51.254;15.592;2023-08-20T01:19:30;22.00;58.40
76537;DHT22;65381;51.254;15.592;2023-08-20T01:25:30;22.00;58.60
76537;DHT22;65381;51.254;15.592;2023-08-20T01:28:20;22.00;58.60
76537;DHT22;65381;51.254;15.592;2023-08-20T01:30:54;22.00;58.70
76537;DHT22;65381;51.254;15.592;2023-08-20T01:33:22;22.00;58.60
76537;DHT22;65381;51.254;15.592;2023-08-20T01:35:52;22.10;58.50
76537;DHT22;65381;51.254;15.592;2023-08-20T01:38:22;22.10;58.80
76537;DHT22;65381;51.254;15.592;2023-08-20T01:40:51;22.20;58.40
76537;DHT22;65381;51.254;15.592;2023-08-20T01:43:20;22.20;58.50
76537;DHT22;65381;51.254;15.592;2023-08-20T01:45:50;22.30;58.40
76537;DHT22;65381;51.254;15.592;2023-08-20T01:48:19;22.40;58.20
76537;DHT22;65381;51.254;15.592;2023-08-20T01:50:47;22.50;58.20
76537;DHT22;65381;51.254;15.592;2023-08-20T01:53:15;22.50;58.20
76537;DHT22;65381;51.254;15.592;2023-08-20T01:55:44;22.50;58.20
76537;DHT22;65381;51.254;15.592;2023-08-20T01:58:12;22.40;58.20
76537;DHT22;65381;51.254;15.592;2023-08-20T02:00:40;22.30;58.30
76537;DHT22;65381;51.254;15.592;2023-08-20T02:03:08;22.30;58.40
76537;DHT22;65381;51.254;15.592;2023-08-20T02:05:37;22.20;58.50
76537;DHT22;65381;51.254;15.592;2023-08-20T02:08:09;22.10;58.60
76537;DHT22;65381;51.254;15.592;2023-08-20T02:10:38;22.10;58.70
76537;DHT22;65381;51.254;15.592;2023-08-20T02:13:07;22.00;58.70
76537;DHT22;65381;51.254;15.592;2023-08-20T02:15:35;21.90;58.70
76537;DHT22;65381;51.254;15.592;2023-08-20T02:18:03;21.90;58.80
76537;DHT22;65381;51.254;15.592;2023-08-20T02:20:33;21.90;58.90
76537;DHT22;65381;51.254;15.592;2023-08-20T02:23:01;21.90;58.90
76537;DHT22;65381;51.254;15.592;2023-08-20T02:25:30;21.90;59.00
76537;DHT22;65381;51.254;15.592;2023-08-20T02:27:58;21.90;59.00
76537;DHT22;65381;51.254;15.592;2023-08-20T02:30:26;21.90;59.00
76537;DHT22;65381;51.254;15.592;2023-08-20T02:32:54;22.00;59.00
76537;DHT22;65381;51.254;15.592;2023-08-20T02:35:22;22.00;58.90
76537;DHT22;65381;51.254;15.592;2023-08-20T02:37:51;22.10;58.90
76537;DHT22;65381;51.254;15.592;2023-08-20T02:40:20;22.10;58.90
76537;DHT22;65381;51.254;15.592;2023-08-20T02:42:49;22.10;58.90
76537;DHT22;65381;51.254;15.592;2023-08-20T02:45:18;22.20;58.90
76537;DHT22;65381;51.254;15.592;2023-08-20T02:47:46;22.20;58.90
76537;DHT22;65381;51.254;15.592;2023-08-20T02:50:14;22.20;58.90
76537;DHT22;65381;51.254;15.592;2023-08-20T02:52:46;22.20;58.90
76537;DHT22;65381;51.254;15.592;2023-08-20T02:55:14;22.20;59.00
76537;DHT22;65381;51.254;15.592;2023-08-20T02:57:43;22.30;59.00
76537;DHT22;65381;51.254;15.592;2023-08-20T03:00:12;22.30;59.00
76537;DHT22;65381;51.254;15.592;2023-08-20T03:02:41;22.30;58.90
76537;DHT22;65381;51.254;15.592;2023-08-20T03:05:10;22.40;58.90
76537;DHT22;65381;51.254;15.592;2023-08-20T03:07:38;22.30;58.90
76537;DHT22;65381;51.254;15.592;2023-08-20T03:10:10;22.30;58.90
76537;DHT22;65381;51.254;15.592;2023-08-20T03:12:39;22.20;59.00
76537;DHT22;65381;51.254;15.592;2023-08-20T03:15:07;22.10;59.00
76537;DHT22;65381;51.254;15.592;2023-08-20T03:17:35;22.00;59.10
76537;DHT22;65381;51.254;15.592;2023-08-20T03:20:08;21.90;59.30
76537;DHT22;65381;51.254;15.592;2023-08-20T03:22:38;21.90;59.30
76537;DHT22;65381;51.254;15.592;2023-08-20T03:25:08;21.80;59.40
76537;DHT22;65381;51.254;15.592;2023-08-20T03:27:36;21.70;59.50
76537;DHT22;65381;51.254;15.592;2023-08-20T03:30:07;21.70;59.60
76537;DHT22;65381;51.254;15.592;2023-08-20T03:32:35;21.60;59.70
76537;DHT22;65381;51.254;15.592;2023-08-20T03:35:04;21.60;59.70
76537;DHT22;65381;51.254;15.592;2023-08-20T03:37:33;21.50;59.70
76537;DHT22;65381;51.254;15.592;2023-08-20T03:40:02;21.50;59.70
76537;DHT22;65381;51.254;15.592;2023-08-20T03:42:32;21.50;59.70
76537;DHT22;65381;51.254;15.592;2023-08-20T03:45:00;21.50;59.80
76537;DHT22;65381;51.254;15.592;2023-08-20T03:47:29;21.50;59.80
76537;DHT22;65381;51.254;15.592;2023-08-20T03:49:59;21.50;59.80
76537;DHT22;65381;51.254;15.592;2023-08-20T03:52:27;21.60;59.80
76537;DHT22;65381;51.254;15.592;2023-08-20T03:54:56;21.70;59.70
76537;DHT22;65381;51.254;15.592;2023-08-20T03:57:26;21.70;59.70
76537;DHT22;65381;51.254;15.592;2023-08-20T03:59:54;21.80;59.60
76537;DHT22;65381;51.254;15.592;2023-08-20T04:02:23;21.90;59.60
76537;DHT22;65381;51.254;15.592;2023-08-20T04:04:51;21.90;59.50
76537;DHT22;65381;51.254;15.592;2023-08-20T04:07:20;21.90;59.50
76537;DHT22;65381;51.254;15.592;2023-08-20T04:09:48;22.00;59.50
76537;DHT22;65381;51.254;15.592;2023-08-20T04:12:16;22.00;59.50
76537;DHT22;65381;51.254;15.592;2023-08-20T04:14:45;22.10;59.40
76537;DHT22;65381;51.254;15.592;2023-08-20T04:17:14;22.10;59.40
76537;DHT22;65381;51.254;15.592;2023-08-20T04:19:44;22.20;59.40
76537;DHT22;65381;51.254;15.592;2023-08-20T04:22:17;22.30;59.40
76537;DHT22;65381;51.254;15.592;2023-08-20T04:24:50;22.50;59.50
76537;DHT22;65381;51.254;15.592;2023-08-20T04:27:19;22.70;59.60
76537;DHT22;65381;51.254;15.592;2023-08-20T04:29:47;23.00;59.60
76537;DHT22;65381;51.254;15.592;2023-08-20T04:32:15;23.40;59.50
76537;DHT22;65381;51.254;15.592;2023-08-20T04:34:51;23.80;59.30
76537;DHT22;65381;51.254;15.592;2023-08-20T04:37:23;24.20;59.00
76537;DHT22;65381;51.254;15.592;2023-08-20T04:39:52;24.40;58.80
76537;DHT22;65381;51.254;15.592;2023-08-20T04:42:21;24.60;58.80
76537;DHT22;65381;51.254;15.592;2023-08-20T04:44:55;25.00;58.80
76537;DHT22;65381;51.254;15.592;2023-08-20T04:47:24;25.10;58.50
76537;DHT22;65381;51.254;15.592;2023-08-20T04:49:52;25.30;58.50
76537;DHT22;65381;51.254;15.592;2023-08-20T04:52:20;25.60;58.40
76537;DHT22;65381;51.254;15.592;2023-08-20T04:54:49;25.80;58.40
76537;DHT22;65381;51.254;15.592;2023-08-20T04:57:18;26.00;58.40
76537;DHT22;65381;51.254;15.592;2023-08-20T04:59:47;26.00;58.40
76537;DHT22;65381;51.254;15.592;2023-08-20T05:02:26;26.10;58.40
76537;DHT22;65381;51.254;15.592;2023-08-20T05:05:05;26.20;58.30
76537;DHT22;65381;51.254;15.592;2023-08-20T05:07:33;26.10;58.20
76537;DHT22;65381;51.254;15.592;2023-08-20T05:10:01;26.00;58.10
76537;DHT22;65381;51.254;15.592;2023-08-20T05:12:30;25.80;58.10
76537;DHT22;65381;51.254;15.592;2023-08-20T05:14:58;25.50;58.20
76537;DHT22;65381;51.254;15.592;2023-08-20T05:17:27;25.10;58.40
76537;DHT22;65381;51.254;15.592;2023-08-20T05:19:57;24.80;58.60
76537;DHT22;65381;51.254;15.592;2023-08-20T05:22:26;24.50;58.80
76537;DHT22;65381;51.254;15.592;2023-08-20T05:24:54;24.20;59.00
76537;DHT22;65381;51.254;15.592;2023-08-20T05:27:22;24.00;59.10
76537;DHT22;65381;51.254;15.592;2023-08-20T05:29:51;23.90;59.20
76537;DHT22;65381;51.254;15.592;2023-08-20T05:32:20;23.80;59.20
76537;DHT22;65381;51.254;15.592;2023-08-20T05:34:48;23.60;59.30
76537;DHT22;65381;51.254;15.592;2023-08-20T05:37:16;23.60;59.30
76537;DHT22;65381;51.254;15.592;2023-08-20T05:39:46;23.50;59.30
76537;DHT22;65381;51.254;15.592;2023-08-20T05:42:16;23.50;59.30
76537;DHT22;65381;51.254;15.592;2023-08-20T05:44:52;23.40;59.30
76537;DHT22;65381;51.254;15.592;2023-08-20T05:47:25;23.40;59.30
76537;DHT22;65381;51.254;15.592;2023-08-20T05:49:57;23.40;59.20
76537;DHT22;65381;51.254;15.592;2023-08-20T05:52:25;23.50;59.20
76537;DHT22;65381;51.254;15.592;2023-08-20T05:54:53;23.50;59.20
76537;DHT22;65381;51.254;15.592;2023-08-20T05:57:22;23.60;59.10
76537;DHT22;65381;51.254;15.592;2023-08-20T05:59:50;23.60;59.00
76537;DHT22;65381;51.254;15.592;2023-08-20T06:02:18;23.60;59.00
76537;DHT22;65381;51.254;15.592;2023-08-20T06:04:48;23.70;59.00
76537;DHT22;65381;51.254;15.592;2023-08-20T06:07:18;23.80;58.90
76537;DHT22;65381;51.254;15.592;2023-08-20T06:09:47;23.90;59.00
76537;DHT22;65381;51.254;15.592;2023-08-20T06:12:17;23.90;58.90
76537;DHT22;65381;51.254;15.592;2023-08-20T06:14:45;24.00;58.90
76537;DHT22;65381;51.254;15.592;2023-08-20T06:17:13;24.00;59.00
76537;DHT22;65381;51.254;15.592;2023-08-20T06:19:42;24.10;59.00
76537;DHT22;65381;51.254;15.592;2023-08-20T06:22:10;24.20;59.00
76537;DHT22;65381;51.254;15.592;2023-08-20T06:24:38;24.40;59.00
76537;DHT22;65381;51.254;15.592;2023-08-20T06:27:06;24.50;58.90
76537;DHT22;65381;51.254;15.592;2023-08-20T06:29:34;24.60;58.90
76537;DHT22;65381;51.254;15.592;2023-08-20T06:32:02;24.70;58.80
76537;DHT22;65381;51.254;15.592;2023-08-20T06:34:31;25.00;58.70
76537;DHT22;65381;51.254;15.592;2023-08-20T06:37:01;25.10;58.70
76537;DHT22;65381;51.254;15.592;2023-08-20T06:39:29;25.40;58.60
76537;DHT22;65381;51.254;15.592;2023-08-20T06:41:58;25.60;58.50
76537;DHT22;65381;51.254;15.592;2023-08-20T06:44:27;26.10;58.30
76537;DHT22;65381;51.254;15.592;2023-08-20T06:46:55;26.40;58.10
76537;DHT22;65381;51.254;15.592;2023-08-20T06:49:23;26.60;57.80
76537;DHT22;65381;51.254;15.592;2023-08-20T06:51:51;26.70;57.70
76537;DHT22;65381;51.254;15.592;2023-08-20T06:54:18;26.60;57.70
76537;DHT22;65381;51.254;15.592;2023-08-20T06:56:46;26.60;57.80
76537;DHT22;65381;51.254;15.592;2023-08-20T06:59:17;26.60;57.90
76537;DHT22;65381;51.254;15.592;2023-08-20T07:01:46;26.60;57.90
76537;DHT22;65381;51.254;15.592;2023-08-20T07:04:15;26.70;57.80
76537;DHT22;65381;51.254;15.592;2023-08-20T07:06:42;26.70;57.80
76537;DHT22;65381;51.254;15.592;2023-08-20T07:09:11;26.80;57.80
76537;DHT22;65381;51.254;15.592;2023-08-20T07:11:39;27.20;57.80
76537;DHT22;65381;51.254;15.592;2023-08-20T07:14:08;27.50;57.90
76537;DHT22;65381;51.254;15.592;2023-08-20T07:16:36;28.30;57.60
76537;DHT22;65381;51.254;15.592;2023-08-20T07:19:04;29.00;57.20
76537;DHT22;65381;51.254;15.592;2023-08-20T07:21:32;30.00;56.90
76537;DHT22;65381;51.254;15.592;2023-08-20T07:24:01;31.50;56.20
76537;DHT22;65381;51.254;15.592;2023-08-20T07:26:29;33.00;55.10
76537;DHT22;65381;51.254;15.592;2023-08-20T07:28:59;34.80;53.60
76537;DHT22;65381;51.254;15.592;2023-08-20T07:31:31;36.00;52.50
76537;DHT22;65381;51.254;15.592;2023-08-20T07:34:01;36.70;51.20
76537;DHT22;65381;51.254;15.592;2023-08-20T07:36:32;37.00;50.70
76537;DHT22;65381;51.254;15.592;2023-08-20T07:39:01;37.40;50.70
76537;DHT22;65381;51.254;15.592;2023-08-20T07:41:29;37.50;49.70
76537;DHT22;65381;51.254;15.592;2023-08-20T07:43:58;37.20;49.50
76537;DHT22;65381;51.254;15.592;2023-08-20T07:46:26;36.70;50.00
76537;DHT22;65381;51.254;15.592;2023-08-20T07:48:56;37.00;50.10
76537;DHT22;65381;51.254;15.592;2023-08-20T07:51:24;37.90;48.80
76537;DHT22;65381;51.254;15.592;2023-08-20T07:53:53;38.60;48.30
76537;DHT22;65381;51.254;15.592;2023-08-20T07:56:20;39.40;46.80
76537;DHT22;65381;51.254;15.592;2023-08-20T07:58:49;39.40;46.60
76537;DHT22;65381;51.254;15.592;2023-08-20T08:01:18;39.70;46.10
76537;DHT22;65381;51.254;15.592;2023-08-20T08:03:47;39.50;45.90
76537;DHT22;65381;51.254;15.592;2023-08-20T08:06:16;39.50;45.90
76537;DHT22;65381;51.254;15.592;2023-08-20T08:08:44;39.50;45.60
76537;DHT22;65381;51.254;15.592;2023-08-20T08:11:13;39.80;45.30
76537;DHT22;65381;51.254;15.592;2023-08-20T08:13:41;40.40;44.70
76537;DHT22;65381;51.254;15.592;2023-08-20T08:16:09;40.80;44.10
76537;DHT22;65381;51.254;15.592;2023-08-20T08:18:38;41.20;43.50
76537;DHT22;65381;51.254;15.592;2023-08-20T08:21:06;41.40;42.80
76537;DHT22;65381;51.254;15.592;2023-08-20T08:23:35;41.40;42.50
76537;DHT22;65381;51.254;15.592;2023-08-20T08:26:03;41.00;42.60
76537;DHT22;65381;51.254;15.592;2023-08-20T08:28:31;41.00;42.50
76537;DHT22;65381;51.254;15.592;2023-08-20T08:30:59;41.20;42.20
76537;DHT22;65381;51.254;15.592;2023-08-20T08:33:27;41.50;41.60
76537;DHT22;65381;51.254;15.592;2023-08-20T08:35:55;41.20;41.20
76537;DHT22;65381;51.254;15.592;2023-08-20T08:38:23;40.80;41.40
76537;DHT22;65381;51.254;15.592;2023-08-20T08:40:55;40.80;41.40
76537;DHT22;65381;51.254;15.592;2023-08-20T08:43:25;41.90;40.80
76537;DHT22;65381;51.254;15.592;2023-08-20T08:45:55;43.00;39.70
76537;DHT22;65381;51.254;15.592;2023-08-20T08:48:25;43.80;38.80
76537;DHT22;65381;51.254;15.592;2023-08-20T08:50:53;44.50;38.10
76537;DHT22;65381;51.254;15.592;2023-08-20T08:53:24;44.50;37.70
76537;DHT22;65381;51.254;15.592;2023-08-20T08:55:53;44.40;37.60
76537;DHT22;65381;51.254;15.592;2023-08-20T08:58:22;44.50;37.40
76537;DHT22;65381;51.254;15.592;2023-08-20T09:00:50;44.30;37.40
76537;DHT22;65381;51.254;15.592;2023-08-20T09:03:18;44.60;37.20
76537;DHT22;65381;51.254;15.592;2023-08-20T09:06:00;44.70;36.60
76537;DHT22;65381;51.254;15.592;2023-08-20T09:08:31;44.30;36.80
76537;DHT22;65381;51.254;15.592;2023-08-20T09:11:00;44.40;36.80
76537;DHT22;65381;51.254;15.592;2023-08-20T09:13:37;45.00;36.30
76537;DHT22;65381;51.254;15.592;2023-08-20T09:16:07;45.70;35.50
76537;DHT22;65381;51.254;15.592;2023-08-20T09:18:40;46.00;35.20
76537;DHT22;65381;51.254;15.592;2023-08-20T09:21:09;47.10;34.40
76537;DHT22;65381;51.254;15.592;2023-08-20T09:23:38;48.10;33.50
76537;DHT22;65381;51.254;15.592;2023-08-20T09:26:07;48.40;33.00
76537;DHT22;65381;51.254;15.592;2023-08-20T09:28:44;47.70;33.10
76537;DHT22;65381;51.254;15.592;2023-08-20T09:31:13;46.60;34.00
76537;DHT22;65381;51.254;15.592;2023-08-20T09:36:26;46.10;34.50
76537;DHT22;65381;51.254;15.592;2023-08-20T09:38:58;45.90;34.40
76537;DHT22;65381;51.254;15.592;2023-08-20T09:41:26;44.70;35.10
76537;DHT22;65381;51.254;15.592;2023-08-20T09:43:58;43.90;35.50
76537;DHT22;65381;51.254;15.592;2023-08-20T09:46:29;43.50;35.70
76537;DHT22;65381;51.254;15.592;2023-08-20T09:48:59;42.80;35.90
76537;DHT22;65381;51.254;15.592;2023-08-20T09:51:28;42.00;36.30
76537;DHT22;65381;51.254;15.592;2023-08-20T09:54:21;42.60;36.30
76537;DHT22;65381;51.254;15.592;2023-08-20T09:56:56;43.20;35.40
76537;DHT22;65381;51.254;15.592;2023-08-20T09:59:26;44.10;35.20
76537;DHT22;65381;51.254;15.592;2023-08-20T10:01:56;46.10;33.70
76537;DHT22;65381;51.254;15.592;2023-08-20T10:04:25;46.90;32.60
76537;DHT22;65381;51.254;15.592;2023-08-20T10:06:54;45.60;33.40
76537;DHT22;65381;51.254;15.592;2023-08-20T10:09:23;45.10;33.70
76537;DHT22;65381;51.254;15.592;2023-08-20T10:11:51;44.90;33.90
76537;DHT22;65381;51.254;15.592;2023-08-20T10:14:19;45.80;33.50
76537;DHT22;65381;51.254;15.592;2023-08-20T10:16:47;46.80;32.50
76537;DHT22;65381;51.254;15.592;2023-08-20T10:19:16;46.40;32.70
76537;DHT22;65381;51.254;15.592;2023-08-20T10:21:45;45.50;33.00
76537;DHT22;65381;51.254;15.592;2023-08-20T10:24:17;44.10;33.90
76537;DHT22;65381;51.254;15.592;2023-08-20T10:26:47;43.30;34.50
76537;DHT22;65381;51.254;15.592;2023-08-20T10:29:40;44.00;34.30
76537;DHT22;65381;51.254;15.592;2023-08-20T10:32:14;44.20;33.40
76537;DHT22;65381;51.254;15.592;2023-08-20T10:34:50;43.70;34.00
76537;DHT22;65381;51.254;15.592;2023-08-20T10:37:27;44.10;33.90
76537;DHT22;65381;51.254;15.592;2023-08-20T10:39:58;44.70;33.50
76537;DHT22;65381;51.254;15.592;2023-08-20T10:42:27;44.70;33.20
76537;DHT22;65381;51.254;15.592;2023-08-20T10:44:59;44.70;33.20
76537;DHT22;65381;51.254;15.592;2023-08-20T10:50:05;45.90;32.60
76537;DHT22;65381;51.254;15.592;2023-08-20T10:52:39;46.30;32.30
76537;DHT22;65381;51.254;15.592;2023-08-20T10:55:08;46.90;31.90
76537;DHT22;65381;51.254;15.592;2023-08-20T10:57:40;48.10;31.20
76537;DHT22;65381;51.254;15.592;2023-08-20T11:00:09;48.20;30.90
76537;DHT22;65381;51.254;15.592;2023-08-20T11:02:43;47.50;31.10
76537;DHT22;65381;51.254;15.592;2023-08-20T11:05:20;46.40;31.80
76537;DHT22;65381;51.254;15.592;2023-08-20T11:07:49;46.30;32.00
76537;DHT22;65381;51.254;15.592;2023-08-20T11:10:18;46.70;31.70
76537;DHT22;65381;51.254;15.592;2023-08-20T11:12:46;46.70;31.80
76537;DHT22;65381;51.254;15.592;2023-08-20T11:15:15;47.20;31.40
76537;DHT22;65381;51.254;15.592;2023-08-20T11:17:45;48.10;30.80
76537;DHT22;65381;51.254;15.592;2023-08-20T11:20:17;49.30;30.10
76537;DHT22;65381;51.254;15.592;2023-08-20T11:22:45;50.00;29.10
76537;DHT22;65381;51.254;15.592;2023-08-20T11:25:14;47.80;30.20
76537;DHT22;65381;51.254;15.592;2023-08-20T11:27:43;46.00;31.50
76537;DHT22;65381;51.254;15.592;2023-08-20T11:30:11;45.40;31.90
76537;DHT22;65381;51.254;15.592;2023-08-20T11:32:41;44.80;32.10
76537;DHT22;65381;51.254;15.592;2023-08-20T11:35:12;43.70;32.60
76537;DHT22;65381;51.254;15.592;2023-08-20T11:37:42;42.80;33.10
76537;DHT22;65381;51.254;15.592;2023-08-20T11:40:11;41.80;33.70
76537;DHT22;65381;51.254;15.592;2023-08-20T11:42:40;40.90;34.40
76537;DHT22;65381;51.254;15.592;2023-08-20T11:45:10;40.50;34.60
76537;DHT22;65381;51.254;15.592;2023-08-20T11:47:39;40.00;34.90
76537;DHT22;65381;51.254;15.592;2023-08-20T11:50:09;39.60;35.30
76537;DHT22;65381;51.254;15.592;2023-08-20T11:52:38;39.30;35.50
76537;DHT22;65381;51.254;15.592;2023-08-20T11:55:10;39.20;35.60
76537;DHT22;65381;51.254;15.592;2023-08-20T11:57:38;38.60;35.80
76537;DHT22;65381;51.254;15.592;2023-08-20T12:00:07;38.00;36.30
76537;DHT22;65381;51.254;15.592;2023-08-20T12:02:41;37.50;36.70
76537;DHT22;65381;51.254;15.592;2023-08-20T12:05:13;37.10;37.00
76537;DHT22;65381;51.254;15.592;2023-08-20T12:07:55;36.50;37.50
76537;DHT22;65381;51.254;15.592;2023-08-20T12:10:30;36.00;38.10
76537;DHT22;65381;51.254;15.592;2023-08-20T12:12:59;35.80;38.30
76537;DHT22;65381;51.254;15.592;2023-08-20T12:15:27;35.40;38.70
76537;DHT22;65381;51.254;15.592;2023-08-20T12:18:05;35.10;39.00
76537;DHT22;65381;51.254;15.592;2023-08-20T12:20:35;34.80;39.40
76537;DHT22;65381;51.254;15.592;2023-08-20T12:23:05;34.60;39.60
76537;DHT22;65381;51.254;15.592;2023-08-20T12:25:34;34.50;39.80
76537;DHT22;65381;51.254;15.592;2023-08-20T12:28:03;34.40;40.00
76537;DHT22;65381;51.254;15.592;2023-08-20T12:30:36;34.30;40.20
76537;DHT22;65381;51.254;15.592;2023-08-20T12:33:05;34.20;40.40
76537;DHT22;65381;51.254;15.592;2023-08-20T12:35:35;34.10;40.50
76537;DHT22;65381;51.254;15.592;2023-08-20T12:38:04;34.20;40.50
76537;DHT22;65381;51.254;15.592;2023-08-20T12:40:32;34.00;40.70
76537;DHT22;65381;51.254;15.592;2023-08-20T12:43:00;33.70;41.00
76537;DHT22;65381;51.254;15.592;2023-08-20T12:45:29;33.40;41.40
76537;DHT22;65381;51.254;15.592;2023-08-20T12:47:57;33.00;41.70
76537;DHT22;65381;51.254;15.592;2023-08-20T12:50:29;32.60;42.20
76537;DHT22;65381;51.254;15.592;2023-08-20T12:52:57;32.20;42.70
76537;DHT22;65381;51.254;15.592;2023-08-20T12:55:25;32.00;43.00
76537;DHT22;65381;51.254;15.592;2023-08-20T12:57:58;31.90;43.30
76537;DHT22;65381;51.254;15.592;2023-08-20T13:00:27;32.00;43.40
76537;DHT22;65381;51.254;15.592;2023-08-20T13:02:56;32.20;43.30
76537;DHT22;65381;51.254;15.592;2023-08-20T13:05:26;32.50;43.40
76537;DHT22;65381;51.254;15.592;2023-08-20T13:07:54;32.70;43.30
76537;DHT22;65381;51.254;15.592;2023-08-20T13:10:23;33.30;43.60
76537;DHT22;65381;51.254;15.592;2023-08-20T13:12:52;34.80;43.00
76537;DHT22;65381;51.254;15.592;2023-08-20T13:15:22;36.50;42.20
76537;DHT22;65381;51.254;15.592;2023-08-20T13:17:51;37.50;41.50
76537;DHT22;65381;51.254;15.592;2023-08-20T13:20:19;37.90;41.20
76537;DHT22;65381;51.254;15.592;2023-08-20T13:22:53;38.00;41.30
76537;DHT22;65381;51.254;15.592;2023-08-20T13:25:21;37.90;41.40
76537;DHT22;65381;51.254;15.592;2023-08-20T13:27:50;37.90;41.60
76537;DHT22;65381;51.254;15.592;2023-08-20T13:30:19;38.10;41.40
76537;DHT22;65381;51.254;15.592;2023-08-20T13:32:47;38.20;41.40
76537;DHT22;65381;51.254;15.592;2023-08-20T13:35:15;38.30;41.20
76537;DHT22;65381;51.254;15.592;2023-08-20T13:37:44;38.50;41.10
76537;DHT22;65381;51.254;15.592;2023-08-20T13:40:13;38.70;40.90
76537;DHT22;65381;51.254;15.592;2023-08-20T13:42:41;39.10;40.60
76537;DHT22;65381;51.254;15.592;2023-08-20T13:45:10;39.60;40.20
76537;DHT22;65381;51.254;15.592;2023-08-20T13:47:38;39.70;40.00
76537;DHT22;65381;51.254;15.592;2023-08-20T13:50:07;39.70;39.90
76537;DHT22;65381;51.254;15.592;2023-08-20T13:52:35;39.60;39.80
76537;DHT22;65381;51.254;15.592;2023-08-20T13:55:05;39.00;40.10
76537;DHT22;65381;51.254;15.592;2023-08-20T13:57:33;38.50;40.60
76537;DHT22;65381;51.254;15.592;2023-08-20T14:00:04;38.20;40.90
76537;DHT22;65381;51.254;15.592;2023-08-20T14:02:39;38.20;41.00
76537;DHT22;65381;51.254;15.592;2023-08-20T14:05:08;38.30;40.80
76537;DHT22;65381;51.254;15.592;2023-08-20T14:07:37;37.90;40.70
76537;DHT22;65381;51.254;15.592;2023-08-20T14:10:08;36.90;41.10
76537;DHT22;65381;51.254;15.592;2023-08-20T14:12:36;36.00;41.70
76537;DHT22;65381;51.254;15.592;2023-08-20T14:15:08;35.30;42.20
76537;DHT22;65381;51.254;15.592;2023-08-20T14:17:37;34.80;42.70
76537;DHT22;65381;51.254;15.592;2023-08-20T14:20:06;34.40;42.90
76537;DHT22;65381;51.254;15.592;2023-08-20T14:22:35;34.00;43.10
76537;DHT22;65381;51.254;15.592;2023-08-20T14:25:05;33.80;43.30
76537;DHT22;65381;51.254;15.592;2023-08-20T14:27:33;33.50;43.40
76537;DHT22;65381;51.254;15.592;2023-08-20T14:30:02;33.30;43.50
76537;DHT22;65381;51.254;15.592;2023-08-20T14:32:30;33.30;43.60
76537;DHT22;65381;51.254;15.592;2023-08-20T14:34:59;33.40;43.50
76537;DHT22;65381;51.254;15.592;2023-08-20T14:37:27;33.30;43.50
76537;DHT22;65381;51.254;15.592;2023-08-20T14:39:57;33.20;43.60
76537;DHT22;65381;51.254;15.592;2023-08-20T14:42:24;33.10;43.70
76537;DHT22;65381;51.254;15.592;2023-08-20T14:44:54;33.00;43.70
76537;DHT22;65381;51.254;15.592;2023-08-20T14:47:23;33.00;43.80
76537;DHT22;65381;51.254;15.592;2023-08-20T14:49:51;33.00;43.90
76537;DHT22;65381;51.254;15.592;2023-08-20T14:52:20;33.00;43.90
76537;DHT22;65381;51.254;15.592;2023-08-20T14:54:48;32.80;44.10
76537;DHT22;65381;51.254;15.592;2023-08-20T14:57:19;32.80;44.20
76537;DHT22;65381;51.254;15.592;2023-08-20T14:59:47;32.70;44.30
76537;DHT22;65381;51.254;15.592;2023-08-20T15:02:16;32.60;44.30
76537;DHT22;65381;51.254;15.592;2023-08-20T15:04:45;32.60;44.40
76537;DHT22;65381;51.254;15.592;2023-08-20T15:07:13;32.50;44.40
76537;DHT22;65381;51.254;15.592;2023-08-20T15:09:42;32.50;44.50
76537;DHT22;65381;51.254;15.592;2023-08-20T15:12:10;32.60;44.50
76537;DHT22;65381;51.254;15.592;2023-08-20T15:14:38;32.60;44.50
76537;DHT22;65381;51.254;15.592;2023-08-20T15:17:07;32.50;44.50
76537;DHT22;65381;51.254;15.592;2023-08-20T15:19:35;32.60;44.50
76537;DHT22;65381;51.254;15.592;2023-08-20T15:22:04;32.60;44.50
76537;DHT22;65381;51.254;15.592;2023-08-20T15:24:33;32.50;44.60
76537;DHT22;65381;51.254;15.592;2023-08-20T15:27:02;32.50;44.70
76537;DHT22;65381;51.254;15.592;2023-08-20T15:29:32;32.50;44.80
76537;DHT22;65381;51.254;15.592;2023-08-20T15:32:00;32.50;44.90
76537;DHT22;65381;51.254;15.592;2023-08-20T15:34:28;32.50;44.90
76537;DHT22;65381;51.254;15.592;2023-08-20T15:36:57;32.60;44.90
76537;DHT22;65381;51.254;15.592;2023-08-20T15:39:26;32.50;44.90
76537;DHT22;65381;51.254;15.592;2023-08-20T15:41:54;32.50;44.90
76537;DHT22;65381;51.254;15.592;2023-08-20T15:44:23;32.40;44.90